Avola, Canada
Current Conditions -  °F | °C
As of 5:04 PM on Wednesday 26 Nov 2014 (Local Time) from CYRV Reporting Station
Light Snow Light Snow  
Wind Chill: 32°   Ceiling: 800
Heat Index: 32°   Visibility: 2mi
Dew Point: 32°   Wind: 3mph
Humidity: 100%   Direction: 30°NNE
Pressure: 30.06"   Gusts: NA
Location:  51.78°N, 119.32°W
Report Text: CYRV 270104Z AUTO 03003KT 2SM -SN BKN008 OVC014 00/00 A3006 RMK ICG PAST HR SLP197
Loading
Personal Weather Stations






























Interactive Weather Map New forecast layout! Learn more

10-Day Weather Forecast

Advertisements
Track Severe Weather on mobile